sensor_id;sensor_type;location;lat;lon;timestamp;P1;durP1;ratioP1;P2;durP2;ratioP2
31808;SDS011;18379;48.208;-1.518;2024-01-15T00:01:35;89.93;;;38.27;;
31808;SDS011;18379;48.208;-1.518;2024-01-15T00:06:36;59.60;;;31.77;;
31808;SDS011;18379;48.208;-1.518;2024-01-15T00:11:36;73.83;;;35.17;;
31808;SDS011;18379;48.208;-1.518;2024-01-15T00:16:37;63.60;;;33.33;;
31808;SDS011;18379;48.208;-1.518;2024-01-15T00:21:40;64.33;;;33.07;;
31808;SDS011;18379;48.208;-1.518;2024-01-15T00:26:40;57.77;;;31.20;;
31808;SDS011;18379;48.208;-1.518;2024-01-15T00:31:41;61.53;;;30.70;;
31808;SDS011;18379;48.208;-1.518;2024-01-15T00:36:41;54.73;;;29.60;;
31808;SDS011;18379;48.208;-1.518;2024-01-15T00:41:42;57.53;;;30.80;;
31808;SDS011;18379;48.208;-1.518;2024-01-15T00:46:43;71.60;;;34.37;;
31808;SDS011;18379;48.208;-1.518;2024-01-15T00:51:45;68.43;;;33.03;;
31808;SDS011;18379;48.208;-1.518;2024-01-15T00:56:45;72.47;;;35.07;;
31808;SDS011;18379;48.208;-1.518;2024-01-15T01:01:46;62.07;;;31.33;;
31808;SDS011;18379;48.208;-1.518;2024-01-15T01:06:47;65.73;;;33.77;;
31808;SDS011;18379;48.208;-1.518;2024-01-15T01:11:48;60.17;;;31.87;;
31808;SDS011;18379;48.208;-1.518;2024-01-15T01:16:48;63.07;;;32.17;;
31808;SDS011;18379;48.208;-1.518;2024-01-15T01:21:49;62.63;;;32.63;;
31808;SDS011;18379;48.208;-1.518;2024-01-15T01:26:51;61.43;;;33.37;;
31808;SDS011;18379;48.208;-1.518;2024-01-15T01:31:51;65.13;;;33.20;;
31808;SDS011;18379;48.208;-1.518;2024-01-15T01:36:52;68.77;;;34.17;;
31808;SDS011;18379;48.208;-1.518;2024-01-15T01:41:53;62.73;;;31.97;;
31808;SDS011;18379;48.208;-1.518;2024-01-15T01:46:53;68.53;;;35.93;;
31808;SDS011;18379;48.208;-1.518;2024-01-15T01:51:57;70.97;;;33.70;;
31808;SDS011;18379;48.208;-1.518;2024-01-15T01:57:00;65.47;;;33.80;;
31808;SDS011;18379;48.208;-1.518;2024-01-15T02:02:03;69.00;;;33.87;;
31808;SDS011;18379;48.208;-1.518;2024-01-15T02:07:04;63.77;;;33.17;;
31808;SDS011;18379;48.208;-1.518;2024-01-15T02:12:04;71.23;;;34.23;;
31808;SDS011;18379;48.208;-1.518;2024-01-15T02:17:06;66.07;;;33.70;;
31808;SDS011;18379;48.208;-1.518;2024-01-15T02:22:07;64.57;;;32.87;;
31808;SDS011;18379;48.208;-1.518;2024-01-15T02:27:07;61.87;;;30.73;;
31808;SDS011;18379;48.208;-1.518;2024-01-15T02:32:09;61.27;;;30.43;;
31808;SDS011;18379;48.208;-1.518;2024-01-15T02:37:09;62.93;;;31.17;;
31808;SDS011;18379;48.208;-1.518;2024-01-15T02:42:10;65.80;;;32.53;;
31808;SDS011;18379;48.208;-1.518;2024-01-15T02:47:10;61.73;;;31.70;;
31808;SDS011;18379;48.208;-1.518;2024-01-15T02:52:11;69.90;;;33.53;;
31808;SDS011;18379;48.208;-1.518;2024-01-15T02:57:12;52.37;;;28.57;;
31808;SDS011;18379;48.208;-1.518;2024-01-15T03:02:12;60.67;;;30.50;;
31808;SDS011;18379;48.208;-1.518;2024-01-15T03:07:13;59.13;;;29.57;;
31808;SDS011;18379;48.208;-1.518;2024-01-15T03:12:14;64.30;;;31.23;;
31808;SDS011;18379;48.208;-1.518;2024-01-15T03:17:14;61.20;;;29.70;;
31808;SDS011;18379;48.208;-1.518;2024-01-15T03:22:15;53.50;;;27.90;;
31808;SDS011;18379;48.208;-1.518;2024-01-15T03:27:16;55.83;;;29.20;;
31808;SDS011;18379;48.208;-1.518;2024-01-15T03:32:17;52.73;;;27.07;;
31808;SDS011;18379;48.208;-1.518;2024-01-15T03:37:19;54.17;;;28.10;;
31808;SDS011;18379;48.208;-1.518;2024-01-15T03:42:20;56.83;;;29.30;;
31808;SDS011;18379;48.208;-1.518;2024-01-15T03:47:20;57.33;;;27.53;;
31808;SDS011;18379;48.208;-1.518;2024-01-15T03:52:21;49.90;;;26.67;;
31808;SDS011;18379;48.208;-1.518;2024-01-15T03:57:21;46.93;;;24.93;;
31808;SDS011;18379;48.208;-1.518;2024-01-15T04:02:22;50.73;;;25.80;;
31808;SDS011;18379;48.208;-1.518;2024-01-15T04:07:23;49.07;;;25.57;;
31808;SDS011;18379;48.208;-1.518;2024-01-15T04:12:23;48.17;;;25.40;;
31808;SDS011;18379;48.208;-1.518;2024-01-15T04:17:24;46.23;;;23.97;;
31808;SDS011;18379;48.208;-1.518;2024-01-15T04:22:25;44.30;;;23.50;;
31808;SDS011;18379;48.208;-1.518;2024-01-15T04:27:26;45.57;;;24.87;;
31808;SDS011;18379;48.208;-1.518;2024-01-15T04:32:27;40.67;;;23.07;;
31808;SDS011;18379;48.208;-1.518;2024-01-15T04:37:28;45.30;;;24.83;;
31808;SDS011;18379;48.208;-1.518;2024-01-15T04:42:28;47.57;;;25.60;;
31808;SDS011;18379;48.208;-1.518;2024-01-15T04:47:29;45.37;;;24.60;;
31808;SDS011;18379;48.208;-1.518;2024-01-15T04:52:29;48.97;;;25.00;;
31808;SDS011;18379;48.208;-1.518;2024-01-15T04:57:30;46.10;;;24.47;;
31808;SDS011;18379;48.208;-1.518;2024-01-15T05:02:31;46.90;;;24.70;;
31808;SDS011;18379;48.208;-1.518;2024-01-15T05:07:31;45.80;;;23.73;;
31808;SDS011;18379;48.208;-1.518;2024-01-15T05:12:32;47.30;;;24.73;;
31808;SDS011;18379;48.208;-1.518;2024-01-15T05:17:32;46.40;;;23.73;;
31808;SDS011;18379;48.208;-1.518;2024-01-15T05:22:33;47.97;;;23.37;;
31808;SDS011;18379;48.208;-1.518;2024-01-15T05:27:34;47.33;;;24.67;;
31808;SDS011;18379;48.208;-1.518;2024-01-15T05:32:35;44.97;;;24.53;;
31808;SDS011;18379;48.208;-1.518;2024-01-15T05:37:35;41.47;;;21.80;;
31808;SDS011;18379;48.208;-1.518;2024-01-15T05:42:36;38.77;;;21.43;;
31808;SDS011;18379;48.208;-1.518;2024-01-15T05:47:36;46.20;;;23.73;;
31808;SDS011;18379;48.208;-1.518;2024-01-15T05:52:37;45.27;;;23.47;;
31808;SDS011;18379;48.208;-1.518;2024-01-15T05:57:38;36.00;;;20.90;;
31808;SDS011;18379;48.208;-1.518;2024-01-15T06:02:38;44.40;;;21.77;;
31808;SDS011;18379;48.208;-1.518;2024-01-15T06:07:39;40.60;;;22.13;;
31808;SDS011;18379;48.208;-1.518;2024-01-15T06:12:40;40.73;;;22.33;;
31808;SDS011;18379;48.208;-1.518;2024-01-15T06:17:42;58.93;;;23.97;;
31808;SDS011;18379;48.208;-1.518;2024-01-15T06:22:43;34.77;;;20.73;;
31808;SDS011;18379;48.208;-1.518;2024-01-15T06:27:44;41.30;;;21.67;;
31808;SDS011;18379;48.208;-1.518;2024-01-15T06:32:44;35.47;;;20.67;;
31808;SDS011;18379;48.208;-1.518;2024-01-15T06:37:45;40.20;;;22.63;;
31808;SDS011;18379;48.208;-1.518;2024-01-15T06:42:46;44.03;;;22.47;;
31808;SDS011;18379;48.208;-1.518;2024-01-15T06:47:46;35.93;;;20.97;;
31808;SDS011;18379;48.208;-1.518;2024-01-15T06:52:47;36.53;;;20.43;;
31808;SDS011;18379;48.208;-1.518;2024-01-15T06:57:47;42.63;;;22.83;;
31808;SDS011;18379;48.208;-1.518;2024-01-15T07:02:48;47.67;;;23.10;;
31808;SDS011;18379;48.208;-1.518;2024-01-15T07:07:49;42.73;;;23.50;;
31808;SDS011;18379;48.208;-1.518;2024-01-15T07:12:50;49.73;;;24.60;;
31808;SDS011;18379;48.208;-1.518;2024-01-15T07:17:50;48.50;;;23.73;;
31808;SDS011;18379;48.208;-1.518;2024-01-15T07:22:51;52.97;;;23.70;;
31808;SDS011;18379;48.208;-1.518;2024-01-15T07:27:51;46.70;;;24.03;;
31808;SDS011;18379;48.208;-1.518;2024-01-15T07:32:54;58.43;;;24.83;;
31808;SDS011;18379;48.208;-1.518;2024-01-15T07:37:54;56.93;;;24.03;;
31808;SDS011;18379;48.208;-1.518;2024-01-15T07:42:55;55.77;;;24.90;;
31808;SDS011;18379;48.208;-1.518;2024-01-15T07:47:56;43.17;;;23.50;;
31808;SDS011;18379;48.208;-1.518;2024-01-15T07:52:56;47.30;;;25.17;;
31808;SDS011;18379;48.208;-1.518;2024-01-15T07:57:57;47.63;;;23.27;;
31808;SDS011;18379;48.208;-1.518;2024-01-15T08:02:59;50.03;;;26.23;;
31808;SDS011;18379;48.208;-1.518;2024-01-15T08:07:59;42.27;;;23.00;;
31808;SDS011;18379;48.208;-1.518;2024-01-15T08:13:00;52.83;;;25.37;;
31808;SDS011;18379;48.208;-1.518;2024-01-15T08:18:00;48.73;;;27.63;;
31808;SDS011;18379;48.208;-1.518;2024-01-15T08:23:02;48.33;;;23.37;;
31808;SDS011;18379;48.208;-1.518;2024-01-15T08:28:03;42.37;;;23.00;;
31808;SDS011;18379;48.208;-1.518;2024-01-15T08:33:03;49.30;;;24.40;;
31808;SDS011;18379;48.208;-1.518;2024-01-15T08:38:04;44.60;;;23.33;;
31808;SDS011;18379;48.208;-1.518;2024-01-15T08:43:05;42.53;;;22.80;;
31808;SDS011;18379;48.208;-1.518;2024-01-15T08:48:06;42.17;;;23.30;;
31808;SDS011;18379;48.208;-1.518;2024-01-15T08:53:07;44.57;;;22.70;;
31808;SDS011;18379;48.208;-1.518;2024-01-15T08:58:08;47.97;;;24.47;;
31808;SDS011;18379;48.208;-1.518;2024-01-15T09:03:08;43.87;;;23.27;;
31808;SDS011;18379;48.208;-1.518;2024-01-15T09:08:09;47.70;;;23.40;;
31808;SDS011;18379;48.208;-1.518;2024-01-15T09:13:10;52.97;;;24.03;;
31808;SDS011;18379;48.208;-1.518;2024-01-15T09:18:10;46.60;;;23.20;;
31808;SDS011;18379;48.208;-1.518;2024-01-15T09:23:11;49.40;;;22.83;;
31808;SDS011;18379;48.208;-1.518;2024-01-15T09:28:13;49.07;;;23.07;;
31808;SDS011;18379;48.208;-1.518;2024-01-15T09:33:14;46.10;;;22.43;;
31808;SDS011;18379;48.208;-1.518;2024-01-15T09:38:14;44.03;;;21.60;;
31808;SDS011;18379;48.208;-1.518;2024-01-15T09:43:15;42.40;;;21.53;;
31808;SDS011;18379;48.208;-1.518;2024-01-15T09:48:17;41.67;;;21.53;;
31808;SDS011;18379;48.208;-1.518;2024-01-15T09:53:17;50.87;;;25.83;;
31808;SDS011;18379;48.208;-1.518;2024-01-15T09:58:19;34.73;;;21.20;;
31808;SDS011;18379;48.208;-1.518;2024-01-15T10:03:20;34.87;;;20.13;;
31808;SDS011;18379;48.208;-1.518;2024-01-15T10:08:21;33.17;;;18.93;;
31808;SDS011;18379;48.208;-1.518;2024-01-15T10:13:23;39.00;;;20.60;;
31808;SDS011;18379;48.208;-1.518;2024-01-15T10:18:24;35.33;;;20.10;;
31808;SDS011;18379;48.208;-1.518;2024-01-15T10:23:24;40.27;;;19.80;;
31808;SDS011;18379;48.208;-1.518;2024-01-15T10:28:28;37.37;;;20.60;;
31808;SDS011;18379;48.208;-1.518;2024-01-15T10:33:30;34.60;;;20.13;;
31808;SDS011;18379;48.208;-1.518;2024-01-15T10:38:31;30.13;;;18.43;;
31808;SDS011;18379;48.208;-1.518;2024-01-15T10:43:32;28.40;;;18.17;;
31808;SDS011;18379;48.208;-1.518;2024-01-15T10:48:34;30.30;;;18.73;;
31808;SDS011;18379;48.208;-1.518;2024-01-15T10:53:37;30.07;;;18.27;;
31808;SDS011;18379;48.208;-1.518;2024-01-15T10:58:40;26.33;;;17.33;;
31808;SDS011;18379;48.208;-1.518;2024-01-15T11:03:43;26.17;;;17.63;;
31808;SDS011;18379;48.208;-1.518;2024-01-15T11:08:44;26.00;;;15.50;;
31808;SDS011;18379;48.208;-1.518;2024-01-15T11:13:48;20.13;;;14.57;;
31808;SDS011;18379;48.208;-1.518;2024-01-15T11:23:59;20.70;;;15.07;;
31808;SDS011;18379;48.208;-1.518;2024-01-15T11:29:02;22.60;;;15.17;;
31808;SDS011;18379;48.208;-1.518;2024-01-15T11:34:03;20.03;;;15.73;;
31808;SDS011;18379;48.208;-1.518;2024-01-15T11:44:28;31.37;;;18.23;;
31808;SDS011;18379;48.208;-1.518;2024-01-15T11:55:22;23.93;;;16.17;;
31808;SDS011;18379;48.208;-1.518;2024-01-15T12:00:30;17.77;;;14.57;;
31808;SDS011;18379;48.208;-1.518;2024-01-15T12:05:31;20.50;;;14.57;;
31808;SDS011;18379;48.208;-1.518;2024-01-15T12:10:31;34.53;;;19.50;;
31808;SDS011;18379;48.208;-1.518;2024-01-15T12:15:32;35.33;;;19.40;;
31808;SDS011;18379;48.208;-1.518;2024-01-15T12:20:33;18.03;;;14.70;;
31808;SDS011;18379;48.208;-1.518;2024-01-15T12:25:34;14.93;;;13.47;;
31808;SDS011;18379;48.208;-1.518;2024-01-15T12:30:35;17.03;;;14.33;;
31808;SDS011;18379;48.208;-1.518;2024-01-15T12:35:37;16.83;;;14.67;;
31808;SDS011;18379;48.208;-1.518;2024-01-15T12:40:37;16.07;;;13.43;;
31808;SDS011;18379;48.208;-1.518;2024-01-15T12:45:38;15.03;;;13.17;;
31808;SDS011;18379;48.208;-1.518;2024-01-15T12:50:39;14.20;;;12.50;;
31808;SDS011;18379;48.208;-1.518;2024-01-15T12:55:39;14.07;;;12.67;;
31808;SDS011;18379;48.208;-1.518;2024-01-15T13:00:40;13.70;;;12.40;;
31808;SDS011;18379;48.208;-1.518;2024-01-15T13:05:40;14.30;;;12.90;;
31808;SDS011;18379;48.208;-1.518;2024-01-15T13:10:41;13.57;;;12.20;;
31808;SDS011;18379;48.208;-1.518;2024-01-15T13:15:42;16.60;;;13.40;;
31808;SDS011;18379;48.208;-1.518;2024-01-15T13:20:43;14.30;;;12.83;;
31808;SDS011;18379;48.208;-1.518;2024-01-15T13:25:43;18.13;;;14.23;;
31808;SDS011;18379;48.208;-1.518;2024-01-15T13:30:44;17.27;;;14.63;;
31808;SDS011;18379;48.208;-1.518;2024-01-15T13:35:44;15.27;;;13.03;;
31808;SDS011;18379;48.208;-1.518;2024-01-15T13:40:49;14.23;;;12.77;;
31808;SDS011;18379;48.208;-1.518;2024-01-15T13:45:50;12.73;;;11.50;;
31808;SDS011;18379;48.208;-1.518;2024-01-15T13:50:50;13.37;;;12.17;;
31808;SDS011;18379;48.208;-1.518;2024-01-15T13:55:51;11.93;;;10.93;;
31808;SDS011;18379;48.208;-1.518;2024-01-15T14:00:52;11.63;;;10.60;;
31808;SDS011;18379;48.208;-1.518;2024-01-15T14:05:52;11.63;;;10.63;;
31808;SDS011;18379;48.208;-1.518;2024-01-15T14:10:53;12.50;;;11.50;;
31808;SDS011;18379;48.208;-1.518;2024-01-15T14:15:54;12.93;;;11.83;;
31808;SDS011;18379;48.208;-1.518;2024-01-15T14:20:55;13.77;;;12.57;;
31808;SDS011;18379;48.208;-1.518;2024-01-15T14:25:56;13.07;;;12.03;;
31808;SDS011;18379;48.208;-1.518;2024-01-15T14:30:57;13.87;;;12.40;;
31808;SDS011;18379;48.208;-1.518;2024-01-15T14:36:00;13.30;;;12.00;;
31808;SDS011;18379;48.208;-1.518;2024-01-15T14:41:00;11.97;;;11.07;;
31808;SDS011;18379;48.208;-1.518;2024-01-15T14:46:01;11.40;;;10.30;;
31808;SDS011;18379;48.208;-1.518;2024-01-15T14:51:02;10.03;;;9.20;;
31808;SDS011;18379;48.208;-1.518;2024-01-15T14:56:03;12.07;;;10.90;;
31808;SDS011;18379;48.208;-1.518;2024-01-15T15:01:04;10.93;;;9.93;;
31808;SDS011;18379;48.208;-1.518;2024-01-15T15:06:04;11.27;;;10.27;;
31808;SDS011;18379;48.208;-1.518;2024-01-15T15:11:07;11.33;;;10.10;;
31808;SDS011;18379;48.208;-1.518;2024-01-15T15:16:08;11.63;;;10.60;;
31808;SDS011;18379;48.208;-1.518;2024-01-15T15:21:12;11.73;;;10.73;;
31808;SDS011;18379;48.208;-1.518;2024-01-15T15:26:13;10.67;;;9.90;;
31808;SDS011;18379;48.208;-1.518;2024-01-15T15:31:13;11.13;;;10.13;;
31808;SDS011;18379;48.208;-1.518;2024-01-15T15:36:14;10.77;;;9.87;;
31808;SDS011;18379;48.208;-1.518;2024-01-15T15:41:15;12.10;;;11.00;;
31808;SDS011;18379;48.208;-1.518;2024-01-15T15:46:15;12.93;;;9.53;;
31808;SDS011;18379;48.208;-1.518;2024-01-15T15:51:16;10.40;;;9.40;;
31808;SDS011;18379;48.208;-1.518;2024-01-15T15:56:17;10.30;;;9.23;;
31808;SDS011;18379;48.208;-1.518;2024-01-15T16:01:18;10.73;;;9.80;;
31808;SDS011;18379;48.208;-1.518;2024-01-15T16:06:18;10.07;;;9.23;;
31808;SDS011;18379;48.208;-1.518;2024-01-15T16:11:19;13.47;;;11.37;;
31808;SDS011;18379;48.208;-1.518;2024-01-15T16:16:20;12.03;;;10.73;;
31808;SDS011;18379;48.208;-1.518;2024-01-15T16:21:21;31.77;;;19.87;;
31808;SDS011;18379;48.208;-1.518;2024-01-15T16:26:22;32.43;;;17.43;;
31808;SDS011;18379;48.208;-1.518;2024-01-15T16:31:23;9.87;;;9.00;;
31808;SDS011;18379;48.208;-1.518;2024-01-15T16:36:23;19.50;;;13.30;;
31808;SDS011;18379;48.208;-1.518;2024-01-15T16:41:25;11.43;;;10.17;;
31808;SDS011;18379;48.208;-1.518;2024-01-15T16:46:25;17.60;;;13.30;;
31808;SDS011;18379;48.208;-1.518;2024-01-15T16:51:26;16.07;;;12.70;;
31808;SDS011;18379;48.208;-1.518;2024-01-15T16:56:27;12.70;;;11.00;;
31808;SDS011;18379;48.208;-1.518;2024-01-15T17:01:28;24.70;;;18.17;;
31808;SDS011;18379;48.208;-1.518;2024-01-15T17:06:28;18.07;;;14.40;;
31808;SDS011;18379;48.208;-1.518;2024-01-15T17:11:29;14.00;;;12.60;;
31808;SDS011;18379;48.208;-1.518;2024-01-15T17:16:30;11.30;;;10.20;;
31808;SDS011;18379;48.208;-1.518;2024-01-15T17:21:30;15.53;;;10.20;;
31808;SDS011;18379;48.208;-1.518;2024-01-15T17:26:31;11.67;;;10.47;;
31808;SDS011;18379;48.208;-1.518;2024-01-15T17:31:32;13.03;;;11.47;;
31808;SDS011;18379;48.208;-1.518;2024-01-15T17:36:33;17.83;;;13.00;;
31808;SDS011;18379;48.208;-1.518;2024-01-15T17:41:34;17.03;;;13.33;;
31808;SDS011;18379;48.208;-1.518;2024-01-15T17:46:34;18.70;;;11.77;;
31808;SDS011;18379;48.208;-1.518;2024-01-15T17:51:35;13.77;;;11.03;;
31808;SDS011;18379;48.208;-1.518;2024-01-15T17:56:36;14.60;;;10.50;;
31808;SDS011;18379;48.208;-1.518;2024-01-15T18:01:38;12.17;;;10.47;;
31808;SDS011;18379;48.208;-1.518;2024-01-15T18:06:41;14.23;;;11.07;;
31808;SDS011;18379;48.208;-1.518;2024-01-15T18:11:43;14.43;;;12.13;;
31808;SDS011;18379;48.208;-1.518;2024-01-15T18:16:44;18.47;;;13.37;;
31808;SDS011;18379;48.208;-1.518;2024-01-15T18:21:48;12.33;;;10.37;;
31808;SDS011;18379;48.208;-1.518;2024-01-15T18:26:50;13.63;;;10.90;;
31808;SDS011;18379;48.208;-1.518;2024-01-15T18:31:54;11.43;;;10.20;;
31808;SDS011;18379;48.208;-1.518;2024-01-15T18:36:55;12.23;;;10.47;;
31808;SDS011;18379;48.208;-1.518;2024-01-15T18:41:55;15.60;;;10.90;;
31808;SDS011;18379;48.208;-1.518;2024-01-15T18:46:56;14.67;;;10.80;;
31808;SDS011;18379;48.208;-1.518;2024-01-15T18:51:57;15.37;;;11.53;;
31808;SDS011;18379;48.208;-1.518;2024-01-15T18:56:58;15.17;;;11.73;;
31808;SDS011;18379;48.208;-1.518;2024-01-15T19:01:58;14.70;;;11.13;;
31808;SDS011;18379;48.208;-1.518;2024-01-15T19:06:59;18.07;;;10.97;;
31808;SDS011;18379;48.208;-1.518;2024-01-15T19:12:01;31.73;;;17.10;;
31808;SDS011;18379;48.208;-1.518;2024-01-15T19:17:01;24.30;;;15.03;;
31808;SDS011;18379;48.208;-1.518;2024-01-15T19:22:04;14.70;;;11.60;;
31808;SDS011;18379;48.208;-1.518;2024-01-15T19:27:05;11.50;;;10.30;;
31808;SDS011;18379;48.208;-1.518;2024-01-15T19:32:05;11.80;;;10.23;;
31808;SDS011;18379;48.208;-1.518;2024-01-15T19:37:06;13.17;;;9.63;;
31808;SDS011;18379;48.208;-1.518;2024-01-15T19:42:07;12.97;;;10.50;;
31808;SDS011;18379;48.208;-1.518;2024-01-15T19:47:07;19.07;;;11.10;;
31808;SDS011;18379;48.208;-1.518;2024-01-15T19:52:09;15.40;;;10.70;;
31808;SDS011;18379;48.208;-1.518;2024-01-15T19:57:10;10.63;;;9.17;;
31808;SDS011;18379;48.208;-1.518;2024-01-15T20:02:10;15.33;;;9.90;;
31808;SDS011;18379;48.208;-1.518;2024-01-15T20:07:11;16.73;;;10.83;;
31808;SDS011;18379;48.208;-1.518;2024-01-15T20:12:11;39.70;;;16.20;;
31808;SDS011;18379;48.208;-1.518;2024-01-15T20:17:12;29.97;;;14.57;;
31808;SDS011;18379;48.208;-1.518;2024-01-15T20:22:13;35.40;;;16.67;;
31808;SDS011;18379;48.208;-1.518;2024-01-15T20:27:14;27.57;;;16.37;;
31808;SDS011;18379;48.208;-1.518;2024-01-15T20:32:16;30.00;;;16.97;;
31808;SDS011;18379;48.208;-1.518;2024-01-15T20:37:18;52.63;;;24.00;;
31808;SDS011;18379;48.208;-1.518;2024-01-15T20:42:19;53.90;;;26.97;;
31808;SDS011;18379;48.208;-1.518;2024-01-15T20:47:19;46.03;;;25.87;;
31808;SDS011;18379;48.208;-1.518;2024-01-15T20:52:20;42.20;;;24.53;;
31808;SDS011;18379;48.208;-1.518;2024-01-15T20:57:21;27.40;;;17.53;;
31808;SDS011;18379;48.208;-1.518;2024-01-15T21:02:22;44.37;;;21.57;;
31808;SDS011;18379;48.208;-1.518;2024-01-15T21:07:22;28.20;;;17.13;;
31808;SDS011;18379;48.208;-1.518;2024-01-15T21:12:23;55.63;;;23.53;;
31808;SDS011;18379;48.208;-1.518;2024-01-15T21:17:24;51.07;;;23.80;;
31808;SDS011;18379;48.208;-1.518;2024-01-15T21:22:25;86.83;;;33.73;;
31808;SDS011;18379;48.208;-1.518;2024-01-15T21:27:28;75.33;;;32.13;;
31808;SDS011;18379;48.208;-1.518;2024-01-15T21:32:29;58.03;;;26.80;;
31808;SDS011;18379;48.208;-1.518;2024-01-15T21:37:30;121.63;;;41.77;;
31808;SDS011;18379;48.208;-1.518;2024-01-15T21:42:31;101.63;;;38.10;;
31808;SDS011;18379;48.208;-1.518;2024-01-15T21:47:31;53.47;;;27.63;;
31808;SDS011;18379;48.208;-1.518;2024-01-15T21:52:32;38.57;;;22.67;;
31808;SDS011;18379;48.208;-1.518;2024-01-15T21:57:33;34.77;;;20.47;;
31808;SDS011;18379;48.208;-1.518;2024-01-15T22:02:33;42.43;;;21.17;;
31808;SDS011;18379;48.208;-1.518;2024-01-15T22:07:40;44.77;;;22.33;;
31808;SDS011;18379;48.208;-1.518;2024-01-15T22:12:41;27.27;;;17.37;;
31808;SDS011;18379;48.208;-1.518;2024-01-15T22:17:42;24.00;;;15.73;;
31808;SDS011;18379;48.208;-1.518;2024-01-15T22:22:43;30.13;;;18.03;;
31808;SDS011;18379;48.208;-1.518;2024-01-15T22:27:43;30.87;;;19.23;;
31808;SDS011;18379;48.208;-1.518;2024-01-15T22:32:44;25.00;;;15.60;;
31808;SDS011;18379;48.208;-1.518;2024-01-15T22:37:45;21.90;;;14.03;;
31808;SDS011;18379;48.208;-1.518;2024-01-15T22:42:45;37.80;;;15.50;;
31808;SDS011;18379;48.208;-1.518;2024-01-15T22:47:46;37.07;;;18.47;;
31808;SDS011;18379;48.208;-1.518;2024-01-15T22:52:48;32.07;;;15.97;;
31808;SDS011;18379;48.208;-1.518;2024-01-15T22:57:48;24.70;;;13.80;;
31808;SDS011;18379;48.208;-1.518;2024-01-15T23:02:49;49.20;;;23.87;;
31808;SDS011;18379;48.208;-1.518;2024-01-15T23:07:51;40.30;;;18.47;;
31808;SDS011;18379;48.208;-1.518;2024-01-15T23:12:52;40.13;;;17.83;;
31808;SDS011;18379;48.208;-1.518;2024-01-15T23:17:53;41.50;;;17.87;;
31808;SDS011;18379;48.208;-1.518;2024-01-15T23:22:53;46.97;;;20.90;;
31808;SDS011;18379;48.208;-1.518;2024-01-15T23:27:54;56.80;;;23.63;;
31808;SDS011;18379;48.208;-1.518;2024-01-15T23:32:55;80.13;;;29.13;;
31808;SDS011;18379;48.208;-1.518;2024-01-15T23:37:55;61.60;;;24.30;;
31808;SDS011;18379;48.208;-1.518;2024-01-15T23:42:56;64.30;;;24.43;;
31808;SDS011;18379;48.208;-1.518;2024-01-15T23:47:57;40.40;;;19.60;;
31808;SDS011;18379;48.208;-1.518;2024-01-15T23:52:58;38.33;;;17.03;;
31808;SDS011;18379;48.208;-1.518;2024-01-15T23:57:59;32.47;;;15.40;;
